Time;durP1;ratioP1;P1;durP2;ratioP2;P2;SDS_P1;SDS_P2;PMS_P1;PMS_P2;Temp;Humidity;BMP_temperature;BMP_pressure;BME280_temperature;BME280_humidity;BME280_pressure;Samples;Min_cycle;Max_cycle;Signal;HPM_P1;HPM_P2
2022/09/20 00:01:14;;;;;;;1.83;1.47;;;18.70;66.60;19.90;101343.00;;;;5049282;28;20198;-43
2022/09/20 00:03:42;;;;;;;2.10;1.60;;;18.70;66.60;19.90;101344.00;;;;5064465;28;20186;-43
2022/09/20 00:06:11;;;;;;;1.73;1.47;;;18.70;66.60;19.90;101360.00;;;;5048075;28;20158;-44
2022/09/20 00:08:37;;;;;;;1.60;1.43;;;18.60;66.50;19.90;101345.00;;;;5048032;28;20175;-43
2022/09/20 00:11:14;;;;;;;1.70;1.50;;;18.60;66.50;19.90;101348.00;;;;5047894;28;20210;-43
2022/09/20 00:13:40;;;;;;;1.63;1.50;;;18.60;66.40;19.90;101347.00;;;;5049139;28;20192;-44
2022/09/20 00:16:12;;;;;;;1.67;1.57;;;18.60;66.50;19.90;101356.00;;;;5047831;28;20202;-43
2022/09/20 00:18:38;;;;;;;1.63;1.53;;;18.60;66.50;19.90;101349.00;;;;5047403;28;20197;-45
2022/09/20 00:21:03;;;;;;;1.73;1.50;;;18.60;66.40;19.80;101352.00;;;;5048645;28;20592;-44
2022/09/20 00:23:30;;;;;;;1.70;1.60;;;18.60;66.40;19.80;101346.00;;;;5047558;28;20225;-44
2022/09/20 00:26:00;;;;;;;3.13;1.60;;;18.50;66.30;19.80;101346.00;;;;5063055;28;20162;-44
2022/09/20 00:28:27;;;;;;;1.70;1.60;;;18.60;66.60;19.80;101348.00;;;;5063730;28;20177;-44
2022/09/20 00:30:53;;;;;;;1.47;1.37;;;18.60;66.60;19.80;101351.00;;;;5053689;28;20170;-43
2022/09/20 00:33:20;;;;;;;2.10;1.60;;;18.50;66.40;19.80;101346.00;;;;5055876;28;20242;-44
2022/09/20 00:35:46;;;;;;;1.60;1.50;;;18.50;66.50;19.80;101346.00;;;;5064942;28;20258;-44
2022/09/20 00:38:14;;;;;;;1.50;1.40;;;18.50;66.50;19.80;101339.00;;;;5050105;28;20526;-44
2022/09/20 00:40:41;;;;;;;1.50;1.40;;;18.50;66.60;19.70;101343.00;;;;5047115;28;20202;-44
2022/09/20 00:43:14;;;;;;;2.10;1.40;;;18.50;66.60;19.70;101348.00;;;;5047304;28;20186;-44
2022/09/20 00:45:40;;;;;;;1.50;1.40;;;18.50;66.50;19.70;101347.00;;;;5047222;28;20244;-42
2022/09/20 00:48:26;;;;;;;1.77;1.63;;;18.50;66.40;19.70;101344.00;;;;5051579;28;20177;-43
2022/09/20 00:51:03;;;;;;;1.90;1.70;;;18.50;66.40;19.70;101273.00;;;;5052631;28;20646;-42
2022/09/20 00:53:41;;;;;;;1.53;1.43;;;18.50;66.50;19.70;101358.00;;;;5048216;28;20220;-43
2022/09/20 00:56:12;;;;;;;1.50;1.40;;;18.40;66.40;19.60;101366.00;;;;5047464;28;20154;-43
2022/09/20 00:58:46;;;;;;;1.87;1.60;;;18.40;66.50;19.60;101358.00;;;;5046732;28;20275;-44
2022/09/20 01:01:11;;;;;;;1.60;1.50;;;18.40;66.50;19.60;101288.00;;;;5047024;28;20654;-43
2022/09/20 01:03:37;;;;;;;1.50;1.40;;;18.40;66.50;19.60;101343.00;;;;5046852;28;20468;-43
2022/09/20 01:06:06;;;;;;;2.17;1.60;;;18.40;66.50;19.60;101355.00;;;;5048070;28;20547;-43
2022/09/20 01:08:32;;;;;;;1.80;1.70;;;18.40;66.60;19.60;101350.00;;;;5048896;28;20173;-43
2022/09/20 01:10:58;;;;;;;1.53;1.43;;;18.40;66.50;19.60;101344.00;;;;5047029;28;20185;-43
2022/09/20 01:13:24;;;;;;;1.73;1.63;;;18.40;66.50;19.60;101348.00;;;;5048231;28;20564;-43
2022/09/20 01:15:49;;;;;;;1.60;1.50;;;18.40;66.50;19.60;101357.00;;;;5046781;28;20178;-43
2022/09/20 01:18:15;;;;;;;1.57;1.47;;;18.30;66.40;19.60;101348.00;;;;5047974;28;20198;-43
2022/09/20 01:20:41;;;;;;;1.20;1.17;;;18.30;66.50;19.50;101346.00;;;;5046863;28;20173;-43
2022/09/20 01:23:34;;;;;;;1.47;1.37;;;18.30;66.50;19.50;101349.00;;;;5046949;28;20265;-43
2022/09/20 01:26:38;;;;;;;1.40;1.30;;;18.30;66.50;19.50;101347.00;;;;5048140;28;20299;-43
2022/09/20 01:29:33;;;;;;;1.40;1.30;;;18.30;66.50;19.50;101349.00;;;;5045798;28;20208;-43
2022/09/20 01:32:01;;;;;;;1.67;1.57;;;18.30;66.40;19.50;101344.00;;;;5027129;28;20221;-44
2022/09/20 01:34:35;;;;;;;1.50;1.40;;;18.30;66.40;19.50;101357.00;;;;5046705;28;20173;-43
2022/09/20 01:37:11;;;;;;;1.67;1.57;;;18.30;66.40;19.50;101358.00;;;;5046766;28;20427;-43
2022/09/20 01:40:04;;;;;;;1.60;1.50;;;18.30;66.50;19.50;101362.00;;;;5047039;28;20154;-44
2022/09/20 01:42:36;;;;;;;1.37;1.27;;;18.20;66.40;19.40;101360.00;;;;5046713;28;20194;-43
2022/09/20 01:45:21;;;;;;;1.50;1.40;;;18.30;66.50;19.40;101365.00;;;;5046433;28;20427;-44
2022/09/20 01:48:34;;;;;;;1.40;1.30;;;18.20;66.60;19.40;101357.00;;;;5046546;28;20293;-43
2022/09/20 01:51:37;;;;;;;1.57;1.47;;;18.30;66.90;19.40;101355.00;;;;5046468;28;20159;-44
2022/09/20 01:54:33;;;;;;;1.97;1.60;;;18.20;66.80;19.40;101358.00;;;;5051682;28;20694;-44
2022/09/20 01:57:39;;;;;;;1.50;1.40;;;18.20;66.70;19.40;101364.00;;;;5050432;28;20201;-43
2022/09/20 02:00:20;;;;;;;1.57;1.47;;;18.20;66.60;19.40;101364.00;;;;5051587;28;20151;-44
2022/09/20 02:03:20;;;;;;;1.37;1.27;;;18.20;66.60;19.40;101359.00;;;;5052110;28;20215;-43
2022/09/20 02:06:13;;;;;;;1.23;1.20;;;18.20;66.60;19.30;101357.00;;;;5051474;28;20163;-44
2022/09/20 02:09:24;;;;;;;1.83;1.60;;;18.20;66.60;19.30;101276.00;;;;5049717;28;20174;-43
2022/09/20 02:12:16;;;;;;;1.40;1.30;;;18.20;66.60;19.30;101360.00;;;;5050618;28;20220;-44
2022/09/20 02:15:27;;;;;;;1.90;1.50;;;18.20;66.60;19.30;101368.00;;;;5051837;28;20245;-44
2022/09/20 02:18:27;;;;;;;1.50;1.40;;;18.20;66.50;19.30;101365.00;;;;5050436;28;20190;-44
2022/09/20 02:21:30;;;;;;;1.50;1.40;;;18.20;66.50;19.30;101368.00;;;;5050445;28;20220;-44
2022/09/20 02:24:33;;;;;;;1.20;1.20;;;18.20;66.60;19.20;101371.00;;;;5050450;28;20244;-44
2022/09/20 02:27:43;;;;;;;1.50;1.40;;;18.20;66.60;19.20;101361.00;;;;5050239;28;20186;-43
2022/09/20 02:30:17;;;;;;;1.37;1.27;;;18.20;66.60;19.20;101365.00;;;;5014293;28;20274;-43
2022/09/20 02:33:12;;;;;;;1.57;1.47;;;18.20;66.50;19.20;101364.00;;;;5051085;28;20198;-44
2022/09/20 02:35:59;;;;;;;1.87;1.50;;;18.10;66.50;19.20;101359.00;;;;5052191;28;20195;-43
2022/09/20 02:39:03;;;;;;;1.60;1.47;;;18.10;66.50;19.20;101359.00;;;;5049478;28;20282;-44
2022/09/20 02:41:52;;;;;;;1.50;1.40;;;18.10;66.40;19.20;101348.00;;;;5058194;28;20169;-43
2022/09/20 02:44:43;;;;;;;1.73;1.63;;;18.10;66.60;19.20;101349.00;;;;5052194;28;20216;-43
2022/09/20 02:47:19;;;;;;;1.47;1.37;;;18.10;66.60;19.20;101352.00;;;;5052043;28;20684;-44
2022/09/20 02:50:03;;;;;;;1.40;1.30;;;18.10;66.60;19.20;101342.00;;;;5050123;28;20615;-44
2022/09/20 02:52:43;;;;;;;1.60;1.50;;;18.10;66.50;19.10;101343.00;;;;5049444;28;20262;-42
2022/09/20 02:55:58;;;;;;;2.13;1.30;;;18.10;66.50;19.20;101341.00;;;;5049495;28;20177;-43
2022/09/20 02:59:00;;;;;;;1.53;1.43;;;18.10;66.60;19.20;101346.00;;;;5036241;28;20260;-44
2022/09/20 03:01:28;;;;;;;1.50;1.40;;;18.10;66.50;19.20;101351.00;;;;5049114;28;20554;-44
2022/09/20 03:04:27;;;;;;;1.27;1.17;;;18.00;66.50;19.20;101346.00;;;;5050081;28;20177;-44
2022/09/20 03:07:44;;;;;;;1.40;1.30;;;18.00;66.40;19.10;101349.00;;;;5050113;28;20239;-43
2022/09/20 03:10:25;;;;;;;1.40;1.30;;;18.00;66.60;19.10;101346.00;;;;5032541;28;20209;-43
2022/09/20 03:13:17;;;;;;;1.50;1.40;;;18.00;66.50;19.10;101350.00;;;;5049497;28;20189;-43
2022/09/20 03:16:05;;;;;;;1.60;1.50;;;18.00;66.60;19.10;101344.00;;;;5049362;28;20170;-43
2022/09/20 03:18:49;;;;;;;1.23;1.23;;;18.00;66.60;19.10;101341.00;;;;5050043;28;20654;-44
2022/09/20 03:21:39;;;;;;;1.60;1.50;;;18.00;66.60;19.10;101343.00;;;;5048514;28;20165;-44
2022/09/20 03:24:45;;;;;;;1.50;1.40;;;17.90;66.60;19.10;101339.00;;;;5028972;28;20182;-44
2022/09/20 03:27:53;;;;;;;2.30;1.60;;;18.00;66.60;19.10;101341.00;;;;5048801;28;20619;-44
2022/09/20 03:30:26;;;;;;;6.03;1.70;;;18.00;67.00;19.10;101345.00;;;;5050921;28;20260;-43
2022/09/20 03:33:13;;;;;;;9.53;1.90;;;18.00;67.10;19.10;101348.00;;;;5048352;28;20271;-43
2022/09/20 03:35:57;;;;;;;4.63;1.60;;;18.00;66.90;19.10;101343.00;;;;5050347;28;20188;-43
2022/09/20 03:38:28;;;;;;;5.10;1.67;;;18.00;67.20;19.10;101335.00;;;;5049316;28;20190;-44
2022/09/20 03:41:26;;;;;;;2.13;1.47;;;17.90;66.80;19.10;101350.00;;;;5049560;28;20616;-45
2022/09/20 03:44:07;;;;;;;1.83;1.40;;;17.90;66.80;19.10;101272.00;;;;5029532;28;20425;-44
2022/09/20 03:46:46;;;;;;;3.43;1.60;;;17.90;67.00;19.00;101348.00;;;;5049344;28;20157;-42
2022/09/20 03:49:42;;;;;;;7.70;1.70;;;17.90;67.10;19.10;101330.00;;;;5049184;28;20170;-42
2022/09/20 03:52:40;;;;;;;4.27;1.67;;;17.90;67.10;19.00;101352.00;;;;5052168;28;20202;-44
2022/09/20 03:55:14;;;;;;;3.47;1.70;;;17.90;67.70;19.00;101342.00;;;;5063229;28;20162;-43
2022/09/20 03:58:06;;;;;;;2.87;1.63;;;17.90;67.10;19.00;101335.00;;;;5060394;28;20330;-43
2022/09/20 04:00:45;;;;;;;4.67;1.60;;;17.90;66.80;19.00;101335.00;;;;5053727;28;20189;-43
2022/09/20 04:03:25;;;;;;;2.07;1.50;;;17.90;66.70;19.00;101347.00;;;;5064526;28;20188;-44
2022/09/20 04:06:14;;;;;;;1.60;1.50;;;17.90;66.60;19.00;101348.00;;;;5051433;28;20182;-43
2022/09/20 04:09:13;;;;;;;3.03;2.10;;;17.90;66.60;19.00;101345.00;;;;5049941;28;20157;-42
2022/09/20 04:12:00;;;;;;;4.17;1.70;;;17.90;66.60;19.00;101349.00;;;;5050511;28;20271;-43
2022/09/20 04:14:53;;;;;;;3.90;1.50;;;17.90;66.60;19.00;101355.00;;;;5050872;28;20324;-42
2022/09/20 04:17:41;;;;;;;3.00;1.40;;;17.90;66.50;19.00;101355.00;;;;5058767;28;20295;-44
2022/09/20 04:20:20;;;;;;;3.80;1.57;;;17.90;66.50;18.90;101362.00;;;;5068401;28;20177;-43
2022/09/20 04:22:50;;;;;;;3.50;1.60;;;17.90;66.40;18.90;101352.00;;;;5068467;28;20248;-45
2022/09/20 04:25:22;;;;;;;2.73;1.37;;;17.80;66.30;18.90;101359.00;;;;5068377;28;20463;-43
2022/09/20 04:27:59;;;;;;;3.13;1.63;;;17.90;66.40;18.90;101349.00;;;;5067753;28;20177;-44
2022/09/20 04:30:29;;;;;;;3.00;1.83;;;17.90;66.40;18.90;101294.00;;;;5066680;28;20214;-43
2022/09/20 04:33:03;;;;;;;5.47;1.80;;;17.80;66.30;18.90;101358.00;;;;5039672;28;20244;-43
2022/09/20 04:39:13;;;;;;;4.77;1.93;;;17.80;66.30;18.90;101350.00;;;;5067713;28;20217;-44
2022/09/20 04:42:38;;;;;;;9.30;2.20;;;17.80;66.50;18.90;101370.00;;;;5070138;28;20172;-43
2022/09/20 04:45:39;;;;;;;8.37;2.47;;;17.80;66.60;18.90;101358.00;;;;5068033;28;20691;-44
2022/09/20 04:48:36;;;;;;;6.27;2.40;;;17.80;66.60;18.90;101366.00;;;;5067835;28;20175;-43
2022/09/20 04:51:51;;;;;;;5.57;1.90;;;17.80;66.60;18.90;101361.00;;;;5068776;28;20156;-44
2022/09/20 04:55:01;;;;;;;5.97;2.40;;;17.80;66.60;18.90;101288.00;;;;5068354;28;20167;-44
2022/09/20 04:58:21;;;;;;;6.10;2.10;;;17.70;66.60;18.80;101365.00;;;;5069882;28;20272;-44
2022/09/20 05:01:15;;;;;;;7.47;2.00;;;17.80;66.70;18.80;101356.00;;;;5067106;28;20662;-44
2022/09/20 05:04:15;;;;;;;4.10;2.30;;;17.70;66.50;18.80;101364.00;;;;5068871;28;20196;-44
2022/09/20 05:07:37;;;;;;;5.47;2.10;;;17.70;66.40;18.80;101367.00;;;;5068585;28;20255;-44
2022/09/20 05:10:50;;;;;;;5.87;2.37;;;17.70;66.60;18.80;101375.00;;;;5068153;28;20659;-44
2022/09/20 05:13:41;;;;;;;4.70;2.13;;;17.70;66.70;18.80;101378.00;;;;5006828;28;20259;-44
2022/09/20 05:17:00;;;;;;;3.47;2.20;;;17.70;66.80;18.80;101387.00;;;;5068671;28;20172;-45
2022/09/20 05:19:54;;;;;;;8.50;2.43;;;17.70;67.40;18.50;101389.00;;;;5065274;28;20196;-44
2022/09/20 05:22:50;;;;;;;4.97;2.03;;;17.70;66.80;18.70;101393.00;;;;5068689;28;20670;-44
2022/09/20 05:25:50;;;;;;;5.10;2.10;;;17.60;66.80;18.70;101391.00;;;;5065809;28;20176;-43
2022/09/20 05:29:13;;;;;;;5.30;2.07;;;17.60;66.80;18.70;101398.00;;;;5069964;28;20532;-44
2022/09/20 05:32:21;;;;;;;3.80;2.10;;;17.60;66.80;18.70;101399.00;;;;5007931;28;20733;-45
2022/09/20 05:35:47;;;;;;;2.47;1.90;;;17.60;66.80;18.70;101398.00;;;;5055357;28;20242;-44
2022/09/20 05:38:33;;;;;;;3.33;2.00;;;17.60;66.80;18.70;101406.00;;;;5012084;28;20753;-43
2022/09/20 05:41:12;;;;;;;4.03;2.20;;;17.60;66.80;18.70;101399.00;;;;5072186;28;20266;-43
2022/09/20 05:44:12;;;;;;;2.90;2.10;;;17.60;66.80;18.70;101402.00;;;;5070754;28;20671;-44
2022/09/20 05:47:06;;;;;;;5.37;1.93;;;17.60;66.60;18.70;101403.00;;;;5073315;28;20646;-44
2022/09/20 05:49:51;;;;;;;2.33;1.77;;;17.60;66.80;18.70;101398.00;;;;5072145;28;20168;-44
2022/09/20 05:52:53;;;;;;;2.30;1.90;;;17.60;66.70;18.70;101409.00;;;;5071256;28;20200;-44
2022/09/20 05:55:50;;;;;;;2.10;1.90;;;17.60;66.50;18.70;101317.00;;;;5072165;28;20244;-44
2022/09/20 05:58:53;;;;;;;3.50;2.00;;;17.60;66.40;18.70;101408.00;;;;5072289;28;20186;-43
2022/09/20 06:02:14;;;;;;;3.03;2.13;;;17.60;66.50;18.60;101391.00;;;;5072114;28;20220;-43
2022/09/20 06:05:15;;;;;;;3.73;2.03;;;17.60;66.50;18.60;101394.00;;;;5072838;28;20165;-44
2022/09/20 06:07:53;;;;;;;3.67;1.80;;;17.60;66.60;18.60;101397.00;;;;5073695;28;20401;-44
2022/09/20 06:10:29;;;;;;;2.00;1.80;;;17.60;66.60;18.60;101408.00;;;;5073174;28;20222;-44
2022/09/20 06:13:26;;;;;;;3.23;2.03;;;17.50;66.50;18.60;101415.00;;;;5072824;28;20280;-44
2022/09/20 06:16:03;;;;;;;3.17;2.20;;;17.50;66.60;18.60;101422.00;;;;5074930;28;20532;-44
2022/09/20 06:18:55;;;;;;;1.90;1.80;;;17.50;66.70;18.60;101424.00;;;;5070322;28;20542;-44
2022/09/20 06:21:32;;;;;;;3.10;1.97;;;17.50;67.40;18.60;101418.00;;;;5070402;28;20207;-43
2022/09/20 06:23:59;;;;;;;2.97;1.97;;;17.50;66.60;18.60;101421.00;;;;5070300;28;20226;-44
2022/09/20 06:26:35;;;;;;;2.57;1.83;;;17.50;66.50;18.60;101421.00;;;;5070726;28;20525;-44
2022/09/20 06:29:05;;;;;;;2.17;1.70;;;17.50;66.40;18.60;101351.00;;;;5076903;28;20612;-45
2022/09/20 06:31:31;;;;;;;1.80;1.70;;;17.50;66.40;18.60;101419.00;;;;5071067;28;20276;-43
2022/09/20 06:34:06;;;;;;;1.97;1.80;;;17.50;66.40;18.60;101429.00;;;;5071375;28;20493;-45
2022/09/20 06:42:29;;;;;;;2.00;1.80;;;17.50;66.50;18.60;101416.00;;;;5068927;28;20261;-44
2022/09/20 06:44:55;;;;;;;2.20;2.00;;;17.50;66.50;18.60;101420.00;;;;5069572;28;20702;-45
2022/09/20 06:47:22;;;;;;;1.70;1.60;;;17.50;66.50;18.60;101418.00;;;;5069949;28;20179;-44
2022/09/20 06:49:49;;;;;;;2.00;1.80;;;17.40;66.40;18.60;101418.00;;;;5071183;28;20717;-45
2022/09/20 06:52:16;;;;;;;2.30;1.90;;;17.40;66.40;18.60;101428.00;;;;5070394;28;20181;-45
2022/09/20 06:54:46;;;;;;;2.30;1.60;;;17.40;66.50;18.60;101418.00;;;;4866662;28;20176;-44
2022/09/20 06:57:17;;;;;;;2.00;1.90;;;17.40;66.50;18.60;101425.00;;;;5060031;28;20224;-45
2022/09/20 06:59:44;;;;;;;2.10;1.90;;;17.40;66.40;18.60;101444.00;;;;5072964;28;20210;-44
2022/09/20 07:02:10;;;;;;;1.63;1.53;;;17.50;66.60;18.60;101431.00;;;;5066281;28;20188;-43
2022/09/20 07:04:36;;;;;;;1.53;1.43;;;17.40;66.50;18.50;101439.00;;;;5086052;28;20198;-44
2022/09/20 07:07:03;;;;;;;2.40;1.63;;;17.40;66.60;18.50;101442.00;;;;5090487;28;20159;-45
2022/09/20 07:09:28;;;;;;;3.70;1.80;;;17.40;66.80;18.50;101436.00;;;;5089024;28;20227;-44
2022/09/20 07:11:56;;;;;;;2.93;1.80;;;17.40;66.60;18.60;101453.00;;;;5088497;28;20208;-45
2022/09/20 07:14:22;;;;;;;3.23;1.97;;;17.40;66.60;18.60;101450.00;;;;5069930;28;20192;-44
2022/09/20 07:16:48;;;;;;;5.00;1.93;;;17.40;66.60;18.50;101452.00;;;;5073251;28;20192;-44
2022/09/20 07:19:15;;;;;;;4.23;1.97;;;17.40;66.90;18.60;101451.00;;;;5086864;28;20204;-44
2022/09/20 07:21:41;;;;;;;7.17;2.20;;;17.50;67.40;18.60;101455.00;;;;5087328;28;20166;-43
2022/09/20 07:24:06;;;;;;;3.87;1.90;;;17.60;67.80;18.60;101452.00;;;;5071489;28;20549;-44
2022/09/20 07:26:32;;;;;;;8.97;2.43;;;17.70;67.50;18.60;101453.00;;;;5091092;28;20186;-45
2022/09/20 07:28:58;;;;;;;5.67;1.97;;;17.80;67.10;18.60;101385.00;;;;5080376;28;20600;-45
2022/09/20 07:31:25;;;;;;;7.83;2.20;;;17.90;67.10;18.70;101449.00;;;;5052870;28;20203;-44
2022/09/20 07:33:51;;;;;;;4.43;2.10;;;18.10;67.20;18.70;101459.00;;;;5070420;28;20561;-44
2022/09/20 07:36:17;;;;;;;5.73;2.13;;;18.20;66.80;18.80;101452.00;;;;5068973;28;20191;-44
2022/09/20 07:38:46;;;;;;;4.63;1.97;;;18.30;66.60;18.90;101449.00;;;;5051507;28;20244;-44
2022/09/20 07:41:11;;;;;;;3.87;2.03;;;18.50;66.40;19.00;101453.00;;;;5068750;28;20173;-43
2022/09/20 07:43:37;;;;;;;5.20;2.07;;;18.60;67.10;19.00;101452.00;;;;5069975;28;20289;-43
2022/09/20 07:46:03;;;;;;;4.27;2.30;;;18.70;66.30;19.10;101451.00;;;;5069783;28;20251;-44
2022/09/20 07:48:32;;;;;;;5.77;2.07;;;18.70;66.20;19.10;101371.00;;;;5069458;28;20177;-44
2022/09/20 07:51:01;;;;;;;6.80;2.43;;;18.70;66.20;19.20;101456.00;;;;5067576;28;20192;-44
2022/09/20 07:53:28;;;;;;;4.23;2.03;;;18.70;66.20;19.20;101460.00;;;;5041320;28;20194;-45
2022/09/20 07:56:10;;;;;;;5.57;2.00;;;18.70;66.30;19.30;101450.00;;;;4997057;28;20592;-43
2022/09/20 07:58:35;;;;;;;6.57;2.30;;;18.80;66.40;19.30;101454.00;;;;5068095;28;20280;-43
2022/09/20 08:01:05;;;;;;;3.70;2.10;;;18.80;66.50;19.30;101450.00;;;;5068061;28;20173;-44
2022/09/20 08:03:31;;;;;;;5.13;2.00;;;18.70;66.40;19.30;101455.00;;;;5068016;28;20190;-44
2022/09/20 08:06:02;;;;;;;5.27;2.27;;;18.70;66.60;19.30;101453.00;;;;5070083;28;20165;-44
2022/09/20 08:08:32;;;;;;;6.27;2.00;;;18.70;66.60;19.40;101461.00;;;;5068158;28;20177;-43
2022/09/20 08:11:05;;;;;;;4.27;2.13;;;18.80;66.80;19.40;101463.00;;;;5067839;28;20407;-43
2022/09/20 08:13:40;;;;;;;3.93;2.00;;;18.70;66.70;19.40;101471.00;;;;5067182;28;20635;-44
2022/09/20 08:16:09;;;;;;;2.97;1.90;;;18.70;66.80;19.40;101460.00;;;;5045832;28;20650;-44
2022/09/20 08:18:34;;;;;;;6.07;2.07;;;18.80;67.00;19.40;101462.00;;;;5045664;28;20170;-43
2022/09/20 08:21:07;;;;;;;3.13;1.87;;;18.70;66.90;19.40;101459.00;;;;5051517;28;20234;-44
2022/09/20 08:23:37;;;;;;;2.63;1.90;;;18.70;67.00;19.40;101455.00;;;;5049040;28;20213;-44
2022/09/20 08:26:04;;;;;;;3.10;1.60;;;18.70;67.10;19.40;101456.00;;;;5044857;28;20250;-44
2022/09/20 08:28:30;;;;;;;6.60;1.90;;;18.70;67.20;19.40;101464.00;;;;5045566;28;20175;-45
2022/09/20 08:31:06;;;;;;;6.93;2.03;;;18.70;67.30;19.40;101466.00;;;;5045462;28;20182;-45
2022/09/20 08:33:32;;;;;;;10.67;2.33;;;18.70;67.40;19.40;101468.00;;;;5045431;28;20228;-44
2022/09/20 08:35:58;;;;;;;9.77;2.10;;;18.70;67.40;19.40;101466.00;;;;5043877;28;20185;-45
2022/09/20 08:38:26;;;;;;;19.17;3.10;;;18.70;67.80;19.40;101458.00;;;;5045842;28;20182;-45
2022/09/20 08:41:24;;;;;;;14.30;2.67;;;18.70;67.90;19.40;101463.00;;;;5045004;28;20794;-44
2022/09/20 08:43:56;;;;;;;9.17;2.40;;;18.70;67.90;19.40;101455.00;;;;5028677;28;20184;-44
2022/09/20 08:46:27;;;;;;;11.17;2.30;;;18.70;68.00;19.50;101462.00;;;;5044021;28;20824;-43
2022/09/20 08:48:56;;;;;;;19.77;2.70;;;18.70;68.00;19.50;101471.00;;;;5044088;28;20184;-44
2022/09/20 08:51:22;;;;;;;18.33;3.03;;;18.70;68.00;19.50;101470.00;;;;5043817;28;20522;-44
2022/09/20 08:53:50;;;;;;;9.73;2.90;;;18.70;68.00;19.50;101470.00;;;;4974367;28;20198;-46
2022/09/20 08:56:17;;;;;;;10.87;2.50;;;18.70;68.00;19.50;101463.00;;;;5043034;28;20204;-44
2022/09/20 08:58:44;;;;;;;8.70;2.40;;;18.70;68.00;19.50;101462.00;;;;5043367;28;20166;-45
2022/09/20 09:01:21;;;;;;;8.20;2.60;;;18.70;68.60;19.50;101449.00;;;;5043728;28;20178;-45
2022/09/20 09:03:50;;;;;;;10.20;2.60;;;18.70;68.00;19.50;101458.00;;;;5043552;28;20197;-44
2022/09/20 09:06:18;;;;;;;9.10;2.43;;;18.70;68.00;19.50;101451.00;;;;5044815;28;20182;-44
2022/09/20 09:08:46;;;;;;;11.83;2.60;;;18.70;68.00;19.50;101461.00;;;;5043396;28;20654;-45
2022/09/20 09:11:13;;;;;;;8.33;2.20;;;18.70;68.00;19.50;101468.00;;;;5043425;28;20182;-44
2022/09/20 09:13:47;;;;;;;4.87;2.23;;;18.70;68.80;19.50;101465.00;;;;5044732;28;20208;-46
2022/09/20 09:16:15;;;;;;;8.80;2.40;;;18.70;68.00;19.50;101475.00;;;;5043850;28;20178;-45
2022/09/20 09:18:44;;;;;;;6.90;2.23;;;18.70;68.00;19.50;101464.00;;;;5044121;28;20193;-44
2022/09/20 09:21:29;;;;;;;9.43;2.47;;;18.70;68.00;19.50;101477.00;;;;5044852;28;20632;-45
2022/09/20 09:24:19;;;;;;;7.60;2.30;;;18.70;68.00;19.50;101482.00;;;;5037084;28;20240;-44
2022/09/20 09:26:47;;;;;;;6.47;2.30;;;18.60;67.90;19.50;101479.00;;;;5029844;28;20706;-44
2022/09/20 09:29:21;;;;;;;5.93;2.50;;;18.70;68.00;19.50;101482.00;;;;5031305;28;20181;-44
2022/09/20 09:31:51;;;;;;;4.40;2.10;;;18.60;68.30;19.50;101489.00;;;;5031239;28;20709;-44
2022/09/20 09:34:29;;;;;;;5.27;2.20;;;18.70;68.40;19.50;101481.00;;;;5031485;28;20175;-44
2022/09/20 09:36:55;;;;;;;5.63;2.23;;;18.70;69.10;19.50;101493.00;;;;5031158;28;20179;-45
2022/09/20 09:39:31;;;;;;;5.40;2.30;;;18.70;69.10;19.50;101488.00;;;;5030941;28;20167;-44
2022/09/20 09:42:00;;;;;;;5.73;2.10;;;18.70;69.40;19.50;101491.00;;;;5031509;28;20225;-44
2022/09/20 09:44:32;;;;;;;7.40;2.00;;;18.70;69.00;19.50;101492.00;;;;5030865;28;20607;-43
2022/09/20 09:46:58;;;;;;;7.13;2.20;;;18.60;68.60;19.50;101486.00;;;;5030509;28;20282;-44
2022/09/20 09:49:34;;;;;;;3.77;2.10;;;18.70;68.70;19.50;101472.00;;;;5029385;28;20258;-44
2022/09/20 09:52:12;;;;;;;7.27;2.30;;;18.70;68.60;19.50;101479.00;;;;5031236;28;20248;-43
2022/09/20 09:54:39;;;;;;;9.30;2.30;;;18.70;68.60;19.50;101487.00;;;;4965969;28;20386;-44
2022/09/20 09:57:53;;;;;;;8.83;2.10;;;18.80;68.40;19.60;101489.00;;;;5029734;28;20181;-44
2022/09/20 10:00:23;;;;;;;3.63;1.90;;;18.80;68.50;19.50;101479.00;;;;5027337;28;20234;-44
2022/09/20 10:03:19;;;;;;;7.67;2.40;;;18.80;68.40;19.50;101476.00;;;;5029362;28;20252;-44
2022/09/20 10:06:10;;;;;;;6.87;2.03;;;18.70;68.40;19.50;101455.00;;;;5030349;28;20186;-44
2022/09/20 10:08:53;;;;;;;8.23;2.03;;;18.70;68.40;19.50;101473.00;;;;5029138;28;20159;-44
2022/09/20 10:12:10;;;;;;;5.13;2.10;;;18.70;68.60;19.50;101471.00;;;;5030147;28;20186;-47
2022/09/20 10:15:21;;;;;;;7.20;2.10;;;18.80;68.90;19.50;101469.00;;;;5013019;28;20176;-44
2022/09/20 10:18:27;;;;;;;6.20;2.20;;;18.70;68.90;19.50;101466.00;;;;5008227;28;20178;-45
2022/09/20 10:21:18;;;;;;;7.03;2.10;;;18.70;68.70;19.50;101472.00;;;;5029060;28;20236;-44
2022/09/20 10:24:29;;;;;;;9.17;2.20;;;18.70;68.70;19.50;101473.00;;;;5028131;28;20230;-44
2022/09/20 10:27:32;;;;;;;3.57;1.93;;;18.70;68.70;19.50;101472.00;;;;5029409;28;20179;-44
2022/09/20 10:30:13;;;;;;;5.40;1.90;;;18.70;68.60;19.50;101464.00;;;;5030355;28;20251;-44
2022/09/20 10:33:17;;;;;;;4.93;1.70;;;18.70;68.60;19.50;101475.00;;;;5028269;28;20199;-44
2022/09/20 10:36:16;;;;;;;5.00;2.10;;;18.70;68.50;19.50;101473.00;;;;5028972;28;20682;-44
2022/09/20 10:39:01;;;;;;;3.27;2.20;;;18.70;68.40;19.50;101465.00;;;;5028883;28;20169;-44
2022/09/20 10:44:51;;;;;;;2.57;1.63;;;18.70;68.50;19.50;101466.00;;;;5029185;28;20163;-44
2022/09/20 10:47:19;;;;;;;5.83;1.90;;;18.60;68.30;19.50;101461.00;;;;5046046;28;20170;-44
2022/09/20 10:49:56;;;;;;;4.13;1.73;;;18.70;68.40;19.50;101468.00;;;;5048405;28;20234;-44
2022/09/20 10:52:55;;;;;;;4.33;1.93;;;18.60;68.30;19.50;101465.00;;;;5034572;28;20205;-44
2022/09/20 10:55:51;;;;;;;5.20;2.00;;;18.60;68.30;19.50;101466.00;;;;4936891;28;20183;-45
2022/09/20 10:58:42;;;;;;;4.10;1.60;;;18.60;68.20;19.50;101398.00;;;;5040375;28;20198;-44
2022/09/20 11:01:33;;;;;;;4.07;2.10;;;18.60;68.10;19.50;101472.00;;;;5029989;28;20465;-43
2022/09/20 11:04:55;;;;;;;4.13;2.00;;;18.60;68.10;19.50;101472.00;;;;5029294;28;20160;-45
2022/09/20 11:07:27;;;;;;;3.40;1.73;;;18.70;68.20;19.50;101467.00;;;;5009186;28;20191;-43
2022/09/20 11:10:00;;;;;;;3.67;1.77;;;18.60;68.20;19.50;101477.00;;;;5009353;28;20168;-43
2022/09/20 11:12:38;;;;;;;3.63;2.10;;;18.60;68.20;19.50;101477.00;;;;5008908;28;20352;-43
2022/09/20 11:15:13;;;;;;;3.70;1.90;;;18.60;68.20;19.50;101479.00;;;;5008845;28;20187;-43
2022/09/20 11:17:48;;;;;;;3.03;1.60;;;18.60;69.00;19.50;101474.00;;;;5008689;28;20168;-43
2022/09/20 11:20:43;;;;;;;4.73;1.83;;;18.60;69.20;19.50;101467.00;;;;5009264;28;20167;-43
2022/09/20 11:23:21;;;;;;;4.37;1.97;;;18.70;69.60;19.50;101485.00;;;;5007954;28;20206;-44
2022/09/20 11:26:06;;;;;;;6.73;1.90;;;18.70;69.00;19.30;101482.00;;;;5017620;28;20555;-44
2022/09/20 11:28:39;;;;;;;3.17;1.80;;;18.70;68.90;19.50;101480.00;;;;5007365;28;20193;-44
2022/09/20 11:31:39;;;;;;;2.93;1.63;;;18.70;68.90;19.50;101499.00;;;;5008126;28;20558;-44
2022/09/20 11:34:19;;;;;;;2.57;1.60;;;18.70;68.80;19.50;101493.00;;;;5007940;28;20171;-45
2022/09/20 11:37:00;;;;;;;2.43;1.70;;;18.70;68.80;19.50;101495.00;;;;5022586;28;20207;-45
2022/09/20 11:39:37;;;;;;;2.33;1.67;;;18.70;68.60;19.50;101495.00;;;;5027192;28;20236;-44
2022/09/20 11:42:04;;;;;;;5.33;1.80;;;18.70;68.50;19.50;101503.00;;;;5027616;28;20680;-44
2022/09/20 11:44:29;;;;;;;4.37;2.07;;;18.70;68.80;19.50;101490.00;;;;5011139;28;20268;-44
2022/09/20 11:46:58;;;;;;;4.50;2.07;;;18.70;68.80;19.50;101494.00;;;;5027094;28;20634;-44
2022/09/20 11:50:34;;;;;;;3.43;1.67;;;18.70;69.00;19.50;101491.00;;;;5029009;28;20230;-44
2022/09/20 11:53:41;;;;;;;5.00;1.90;;;18.70;69.20;19.50;101494.00;;;;5006068;28;20586;-45
2022/09/20 11:56:21;;;;;;;4.63;1.80;;;18.80;69.20;19.50;101499.00;;;;5005781;28;20249;-45
2022/09/20 11:58:51;;;;;;;2.80;1.83;;;18.80;69.00;19.50;101506.00;;;;5026977;28;20194;-44
2022/09/20 12:01:40;;;;;;;6.30;1.67;;;18.80;68.90;19.50;101488.00;;;;5027269;28;20623;-44
2022/09/20 12:04:21;;;;;;;7.37;1.80;;;18.80;68.80;19.50;101496.00;;;;5027322;28;20258;-45